Hlavní strana
METAR-TAF:

METAR-TAF

Letiště :

Nižnij Novgorod, Rusko

zeměpisná šířka: 56-19-48N, zeměpisná délka: 044-00E, výška: 78 m

Aktuální stav počasí

Zpráva byla vytvořena před 10 minutami, v 14:00 UTC
Bezvětří
Teplota 0°C
Vlhkost vzduchu 100%
Tlak 1014 hPa
Viditelnost: 4000 m
Zataženo ve výšce 800 ft
kouřmo

METAR: UWGG 251400Z 00000MPS 4000 BR OVC008 00/00 Q1014 R36R/290050 NOSIG

Čas: 17:10 (14:10 UTC)

Předpověď počasí

Zpráva byla vytvořena před 55 minutami, v 13:15 UTC
Předpověď platná od 25 v 13 UTC do 26 v 12 UTC
Severozápadní vítr 6 kt
Viditelnost: 5000 m
Oblačno až skoro zataženo ve výšce 700 ft
kouřmo
Dočasný
od 25 v 13 UTC do 26 v 06 UTC
Viditelnost: 1000 m
Zataženo ve výšce 300 ft
kouřmo

TAF: UWGG 251315Z 2513/2612 31003MPS 5000 BR BKN007 TX01/2513Z TNM01/2603Z TEMPO 2513/2606 1000 BR OVC003

Stav a předpovědi počasí z více než 4 000 letišť (zprávy METAR a TAF).

Červené a žluté tečky na mapě představují dostupné meteorologické stanice.

Když kurzor umístíte na tečku, zobrazí se název stanice.

Pak kliknutím zobrazíte stav a předpověď počasí.

Chcete-li změnit mapu, kliknutím na zelené tlačítko se znaménkem +mapu přiblížíte, kliknutím na zelené tlačítko se znaménkem – mapu oddálíte a kliknutím na zelené šipky přejdete na sousední mapy.


METAR-TAF: